createdAt,value
2023-05-04T00:01:11.111Z,61549.56
2023-05-04T00:06:13.791Z,61509.09
2023-05-04T00:11:17.417Z,61524.88
2023-05-04T00:16:21.986Z,61515.34
2023-05-04T00:21:24.671Z,61542.13
2023-05-04T00:26:27.339Z,61522.91
2023-05-04T00:31:31.431Z,61498.41
2023-05-04T00:36:34.088Z,61506.16
2023-05-04T00:41:36.709Z,61486.84
2023-05-04T00:46:41.869Z,61486.78
2023-05-04T00:51:44.642Z,61486.78
2023-05-04T00:56:48.895Z,61500.63
2023-05-04T01:01:52.787Z,61508.38
2023-05-04T01:07:01.564Z,61468.50
2023-05-04T01:12:07.546Z,61501.50
2023-05-04T01:17:12.713Z,61513.34
2023-05-04T01:22:16.760Z,61474.50
2023-05-04T01:27:24.383Z,61500.84
2023-05-04T01:32:29.746Z,61468.28
2023-05-04T01:37:34.150Z,61464.56
2023-05-04T01:42:36.697Z,61493.44
2023-05-04T01:47:39.442Z,61490.91
2023-05-04T01:52:43.506Z,61426.31
2023-05-04T01:57:46.227Z,61460.34
2023-05-04T02:02:48.892Z,61452.53
2023-05-04T02:07:52.948Z,61455.03
2023-05-04T02:12:55.756Z,61462.72
2023-05-04T02:17:58.437Z,61452.94
2023-05-04T02:23:02.496Z,61485.91
2023-05-04T02:28:05.342Z,61463.13
2023-05-04T02:33:08.160Z,61432.16
2023-05-04T02:38:12.492Z,61463.59
2023-05-04T02:43:15.118Z,61449.09
2023-05-04T02:48:17.673Z,61440.97
2023-05-04T02:53:21.690Z,61447.66
2023-05-04T02:58:24.322Z,61465.72
2023-05-04T03:03:27.205Z,61464.66
2023-05-04T03:08:31.301Z,61463.13
2023-05-04T03:13:33.902Z,61466.13
2023-05-04T03:18:36.535Z,61447.00
2023-05-04T03:23:40.575Z,61457.84
2023-05-04T03:28:43.294Z,61425.28
2023-05-04T03:33:45.988Z,61447.25
2023-05-04T03:38:50.054Z,61447.66
2023-05-04T03:43:52.713Z,61405.19
2023-05-04T03:48:55.382Z,61424.25
2023-05-04T03:53:59.386Z,61408.13
2023-05-04T03:59:02.422Z,61413.81
2023-05-04T04:04:05.663Z,61424.19
2023-05-04T04:09:09.837Z,61434.03
2023-05-04T04:14:12.690Z,61412.28
2023-05-04T04:19:15.579Z,61445.75
2023-05-04T04:24:19.609Z,61376.59
2023-05-04T04:29:22.189Z,61429.28
2023-05-04T04:34:24.853Z,61450.06
2023-05-04T04:39:28.910Z,61437.41
2023-05-04T04:44:31.517Z,61463.13
2023-05-04T04:49:34.952Z,61468.28
2023-05-04T04:54:38.910Z,61485.84
2023-05-04T04:59:41.610Z,61496.22
2023-05-04T05:04:44.234Z,61515.97
2023-05-04T05:09:48.272Z,61564.16
2023-05-04T05:14:51.637Z,61581.88
2023-05-04T05:19:54.250Z,61615.13
2023-05-04T05:24:58.269Z,61638.03
2023-05-04T05:30:00.960Z,61650.44
2023-05-04T05:35:04.581Z,61694.88
2023-05-04T05:40:09.597Z,61700.06
2023-05-04T05:45:12.652Z,61758.31
2023-05-04T05:50:15.349Z,61762.16
2023-05-04T05:55:19.442Z,61761.88
2023-05-04T06:00:22.450Z,61801.44
2023-05-04T06:05:25.134Z,61828.03
2023-05-04T06:10:29.214Z,61879.56
2023-05-04T06:15:32.005Z,61942.31
2023-05-04T06:20:34.647Z,62031.28
2023-05-04T06:25:38.589Z,62079.88
2023-05-04T06:30:41.234Z,62120.00
2023-05-04T06:35:45.150Z,62141.88
2023-05-04T06:40:49.281Z,62177.63
2023-05-04T06:45:51.902Z,62140.63
2023-05-04T06:50:54.666Z,62200.88
2023-05-04T06:55:58.659Z,62274.78
2023-05-04T07:01:01.624Z,62325.28
2023-05-04T07:06:04.738Z,62410.97
2023-05-04T07:11:10.354Z,62468.94
2023-05-04T07:16:13.084Z,62410.25
2023-05-04T07:21:27.603Z,62457.09
2023-05-04T07:26:33.058Z,62591.75
2023-05-04T07:31:36.190Z,62633.09
2023-05-04T07:36:39.884Z,62673.81
2023-05-04T07:41:46.290Z,62706.09
2023-05-04T07:46:50.411Z,62669.91
2023-05-04T07:51:52.958Z,62679.38
2023-05-04T07:56:57.008Z,62655.78
2023-05-04T08:01:59.972Z,62694.56
2023-05-04T08:07:02.782Z,62814.06
2023-05-04T08:12:07.620Z,62838.44
2023-05-04T08:17:10.249Z,62767.13
2023-05-04T08:22:12.914Z,62908.59
2023-05-04T08:27:16.862Z,62921.03
2023-05-04T08:32:19.511Z,62896.22
2023-05-04T08:37:22.191Z,63022.41
2023-05-04T08:42:29.859Z,63096.88
2023-05-04T08:47:32.595Z,63085.81
2023-05-04T08:52:38.015Z,63209.38
2023-05-04T08:57:44.857Z,63216.38
2023-05-04T09:02:48.158Z,63178.13
2023-05-04T09:07:52.724Z,63272.81
2023-05-04T09:12:56.949Z,63272.94
2023-05-04T09:18:03.093Z,63311.34
2023-05-04T09:23:07.387Z,63296.81
2023-05-04T09:28:11.438Z,63363.94
2023-05-04T09:33:14.124Z,63374.28
2023-05-04T09:38:26.705Z,63337.28
2023-05-04T09:43:43.183Z,63359.31
2023-05-04T09:48:53.668Z,63449.19
2023-05-04T09:53:59.567Z,63433.94
2023-05-04T09:59:05.263Z,63452.97
2023-05-04T10:04:08.087Z,63418.47
2023-05-04T10:09:12.127Z,63443.38
2023-05-04T10:14:16.400Z,63529.63
2023-05-04T10:19:42.881Z,63588.72
2023-05-04T10:25:20.769Z,63615.25
2023-05-04T10:30:25.034Z,63677.16
2023-05-04T10:35:29.722Z,63648.78
2023-05-04T10:40:37.180Z,63681.88
2023-05-04T10:45:42.818Z,63693.63
2023-05-04T10:50:46.696Z,63744.97
2023-05-04T10:55:49.696Z,63670.28
2023-05-04T11:00:53.761Z,63743.31
2023-05-04T11:05:56.466Z,63706.25
2023-05-04T11:11:04.463Z,63631.91
2023-05-04T11:16:09.480Z,63730.09
2023-05-04T11:21:12.222Z,63724.94
2023-05-04T11:26:14.883Z,63721.75
2023-05-04T11:31:21.257Z,63708.69
2023-05-04T11:36:24.340Z,63617.59
2023-05-04T11:41:27.109Z,63760.00
2023-05-04T11:46:34.347Z,63751.63
2023-05-04T11:51:37.217Z,63680.22
2023-05-04T11:56:43.530Z,63559.97
2023-05-04T12:01:47.899Z,63659.97
2023-05-04T12:06:50.674Z,63702.81
2023-05-04T12:11:56.709Z,63609.16
2023-05-04T12:17:02.946Z,63705.06
2023-05-04T12:22:06.076Z,63810.50
2023-05-04T12:27:13.878Z,63712.50
2023-05-04T12:32:17.958Z,63692.69
2023-05-04T12:37:21.320Z,63745.91
2023-05-04T12:42:24.751Z,63742.75
2023-05-04T12:47:28.832Z,63635.28
2023-05-04T12:52:31.508Z,63697.41
2023-05-04T12:57:34.161Z,63707.81
2023-05-04T13:02:38.457Z,63623.81
2023-05-04T13:07:41.113Z,63792.72
2023-05-04T13:12:46.115Z,63747.78
2023-05-04T13:17:50.662Z,63770.72
2023-05-04T13:22:54.571Z,63722.47
2023-05-04T13:27:58.841Z,63763.19
2023-05-04T13:33:07.872Z,63688.44
2023-05-04T13:38:19.775Z,63585.13
2023-05-04T13:43:22.555Z,63645.19
2023-05-04T13:48:26.798Z,63728.34
2023-05-04T13:53:29.464Z,63612.75
2023-05-04T13:58:32.117Z,63656.03
2023-05-04T14:03:36.052Z,63639.03
2023-05-04T14:08:38.622Z,63718.00
2023-05-04T14:13:41.237Z,63771.78
2023-05-04T14:18:45.477Z,63733.69
2023-05-04T14:23:48.079Z,63613.69
2023-05-04T14:28:50.733Z,63613.69
2023-05-04T14:33:56.773Z,63657.41
2023-05-04T14:39:00.443Z,63650.06
2023-05-04T14:44:03.101Z,63647.72
2023-05-04T14:49:07.324Z,63613.50
2023-05-04T14:54:09.925Z,63646.66
2023-05-04T14:59:12.511Z,63605.06
2023-05-04T15:04:17.088Z,63588.16
2023-05-04T15:09:19.657Z,63596.94
2023-05-04T15:14:22.572Z,63611.31
2023-05-04T15:19:26.567Z,63607.09
2023-05-04T15:24:29.217Z,63616.75
2023-05-04T15:29:31.863Z,63570.16
2023-05-04T15:34:35.898Z,63574.91
2023-05-04T15:39:38.476Z,63562.47
2023-05-04T15:44:41.125Z,63480.97
2023-05-04T15:49:45.075Z,63500.72
2023-05-04T15:54:47.898Z,63491.03
2023-05-04T15:59:50.615Z,63454.59
2023-05-04T16:04:54.701Z,63414.09
2023-05-04T16:09:58.852Z,63402.72
2023-05-04T16:15:01.459Z,63420.28
2023-05-04T16:20:06.530Z,63419.34
2023-05-04T16:25:11.185Z,63395.91
2023-05-04T16:30:15.506Z,63441.34
2023-05-04T16:35:19.784Z,63398.56
2023-05-04T16:40:24.052Z,63376.03
2023-05-04T16:45:31.275Z,63361.38
2023-05-04T16:50:35.384Z,63275.63
2023-05-04T16:55:38.035Z,63305.56
2023-05-04T17:00:41.773Z,63333.25
2023-05-04T17:05:45.821Z,63388.06
2023-05-04T17:10:49.636Z,63397.53
2023-05-04T17:15:52.364Z,63365.59
2023-05-04T17:20:56.462Z,63310.84
2023-05-04T17:25:59.059Z,63208.34
2023-05-04T17:31:01.756Z,63177.13
2023-05-04T17:36:07.704Z,63160.50
2023-05-04T17:41:10.788Z,63119.06
2023-05-04T17:46:13.543Z,63133.31
2023-05-04T17:51:17.859Z,63117.78
2023-05-04T17:56:22.006Z,63109.69
2023-05-04T18:01:24.664Z,63108.09
2023-05-04T18:06:28.497Z,63062.88
2023-05-04T18:11:31.311Z,63052.66
2023-05-04T18:16:36.126Z,63030.56
2023-05-04T18:21:40.175Z,62971.41
2023-05-04T18:26:44.262Z,62961.50
2023-05-04T18:31:46.975Z,62909.28
2023-05-04T18:36:50.899Z,62868.59
2023-05-04T18:41:53.507Z,62849.22
2023-05-04T18:46:56.151Z,62774.28
2023-05-04T18:52:02.041Z,62764.72
2023-05-04T18:57:05.747Z,62737.25
2023-05-04T19:02:08.539Z,62659.16
2023-05-04T19:07:12.474Z,62622.72
2023-05-04T19:12:15.586Z,62585.41
2023-05-04T19:17:18.391Z,62595.75
2023-05-04T19:22:22.560Z,62591.66
2023-05-04T19:27:25.625Z,62589.56
2023-05-04T19:32:28.544Z,62542.97
2023-05-04T19:37:32.715Z,62540.16
2023-05-04T19:42:35.344Z,62517.31
2023-05-04T19:47:38.407Z,62507.25
2023-05-04T19:52:42.275Z,62499.22
2023-05-04T19:57:45.057Z,62512.72
2023-05-04T20:02:47.937Z,62491.53
2023-05-04T20:07:51.996Z,62456.66
2023-05-04T20:12:54.702Z,62479.94
2023-05-04T20:17:58.889Z,62419.22
2023-05-04T20:23:03.320Z,62403.22
2023-05-04T20:28:06.995Z,62409.94
2023-05-04T20:33:09.712Z,62411.44
2023-05-04T20:38:14.248Z,62386.69
2023-05-04T20:43:17.569Z,62385.56
2023-05-04T20:48:20.719Z,62396.88
2023-05-04T20:53:24.633Z,62412.66
2023-05-04T20:58:27.222Z,62413.06
2023-05-04T21:03:29.950Z,62421.50
2023-05-04T21:08:34.964Z,62401.00
2023-05-04T21:13:37.642Z,62461.31
2023-05-04T21:18:40.297Z,62428.72
2023-05-04T21:23:44.328Z,62390.41
2023-05-04T21:28:47.433Z,62405.47
2023-05-04T21:33:50.117Z,62386.56
2023-05-04T21:38:55.398Z,62400.13
2023-05-04T21:43:58.260Z,62374.38
2023-05-04T21:49:01.304Z,62376.97
2023-05-04T21:54:05.468Z,62381.63
2023-05-04T21:59:08.054Z,62403.69
2023-05-04T22:04:10.638Z,62370.63
2023-05-04T22:09:15.874Z,62403.81
2023-05-04T22:14:19.213Z,62370.78
2023-05-04T22:19:21.881Z,62390.19
2023-05-04T22:24:26.897Z,62406.97
2023-05-04T22:29:29.627Z,62371.81
2023-05-04T22:34:32.437Z,62396.47
2023-05-04T22:39:36.533Z,62374.84
2023-05-04T22:44:39.373Z,62386.25
2023-05-04T22:49:42.191Z,62357.78
2023-05-04T22:54:46.484Z,62355.97
2023-05-04T22:59:49.347Z,62353.97
2023-05-04T23:04:53.155Z,62325.94
2023-05-04T23:09:57.506Z,62282.34
2023-05-04T23:15:00.215Z,62293.16
2023-05-04T23:20:03.068Z,62272.75
2023-05-04T23:25:09.896Z,62289.00
2023-05-04T23:30:13.264Z,62293.59
2023-05-04T23:35:16.017Z,62237.53
2023-05-04T23:40:20.751Z,62229.09
2023-05-04T23:45:23.416Z,62272.38
2023-05-04T23:50:26.126Z,62278.00
2023-05-04T23:55:30.151Z,62272.56
